Latest Weather Observations for Mount Gambier

IDS60801

Issued at 8:31 am CDT Friday 24 November 2017 (issued every 30 minutes, with the page automatically refreshed every 10 minutes)

About weather observations | Map of weather stations | Latest weather observations for SA | Other Formats
Station Details ID: 026021 Name: MOUNT GAMBIER AERO Lat: -37.75 Lon: 140.77 Height: 63.0 m
Data from the previous 72 hours. | See also: Recent months at Mount Gambier
Date/Time
CDT
Temp
°C
App
Temp
°C
Dew
Point
°C
Rel
Hum
%
Delta-T
°C
Wind Press
QNH
hPa
Press
MSL
hPa
Rain since
9am
mm
Dir  Spd
km/h
Gust
km/h
Spd
kts
Gust
kts
24/08:30am 18.8 19.7 16.6 87 1.3 S 7 11 4 6 1013.8 1013.7 0.8
24/08:00am 17.6 17.6 16.3 92 0.8 SW 11 13 6 7 1013.6 1013.5 0.8
24/07:30am 17.0 17.6 15.9 93 0.6 SW 7 9 4 5 1013.4 1013.3 0.8
24/07:00am 16.5 17.2 15.5 94 0.6 WSW 6 7 3 4 1013.0 1012.9 0.8
24/06:30am 16.1 16.6 15.1 94 0.6 W 6 7 3 4 1012.8 1012.7 0.8
24/06:00am 15.7 16.1 14.7 94 0.6 WNW 6 7 3 4 1012.4 1012.3 0.8
24/05:30am 15.8 15.6 14.8 94 0.6 WSW 9 9 5 5 1011.8 1011.7 0.8
24/05:00am 15.8 17.3 14.7 93 0.6 CALM 0 0 0 0 1011.6 1011.5 0.8
24/04:30am 15.8 17.3 14.7 93 0.6 CALM 0 0 0 0 1011.6 1011.5 0.8
24/04:00am 15.7 16.0 14.6 93 0.6 SE 6 7 3 4 1011.5 1011.4 0.8
24/03:30am 15.7 17.1 14.4 92 0.7 CALM 0 0 0 0 1011.3 1011.2 0.8
24/03:00am 15.8 16.1 14.5 92 0.7 SE 6 7 3 4 1011.4 1011.3 0.8
24/02:30am 15.9 15.2 14.4 91 0.9 SSW 11 11 6 6 1011.2 1011.1 0.8
24/02:00am 16.0 16.1 14.5 91 0.9 W 7 11 4 6 1011.6 1011.5 0.8
24/01:30am 15.3 14.9 14.2 93 0.6 WNW 9 13 5 7 1011.4 1011.3 0.8
24/01:00am 15.6 15.4 14.6 94 0.6 WSW 9 11 5 6 1011.4 1011.3 0.8
24/12:30am 15.7 15.8 14.4 92 0.7 NNE 7 9 4 5 1011.6 1011.5 0.8
24/12:00am 16.0 16.1 14.5 91 0.9 NNE 7 11 4 6 1011.9 1011.8 0.8
 
Date/Time
CDT
Temp
°C
App
Temp
°C
Dew
Point
°C
Rel
Hum
%
Delta-T
°C
Wind Press
QNH
hPa
Press
MSL
hPa
Rain since
9am
mm
Dir  Spd
km/h
Gust
km/h
Spd
kts
Gust
kts
23/11:30pm 17.0 16.8 14.8 87 1.3 W 9 13 5 7 1011.4 1011.3 0.8
23/11:00pm 17.7 17.3 15.1 85 1.5 W 11 15 6 8 1011.3 1011.2 0.8
23/10:30pm 17.8 17.7 14.9 83 1.7 NW 9 11 5 6 1011.6 1011.5 0.8
23/10:00pm 18.3 17.2 15.2 82 1.8 WNW 15 19 8 10 1011.3 1011.2 0.8
23/09:30pm 17.9 16.8 15.3 85 1.5 N 15 17 8 9 1011.3 1011.2 0.8
23/09:00pm 19.9 17.7 14.3 70 3.3 SW 19 26 10 14 1010.5 1010.5 0.8
23/08:30pm 19.0 17.2 15.5 80 2.1 SSE 19 28 10 15 1010.5 1010.5 0.8
23/08:00pm 19.0 19.7 17.1 89 1.2 ESE 9 15 5 8 1011.3 1011.2 0.6
23/07:30pm 19.2 18.4 16.1 82 1.9 NE 15 19 8 10 1011.7 1011.6 0.2
23/07:00pm 19.9 18.7 16.0 78 2.3 N 17 22 9 12 1011.9 1011.8 0.0
23/06:30pm 20.6 16.0 14.7 69 3.5 NNE 32 48 17 26 1012.3 1012.2 0.0
23/06:22pm 22.9 19.1 13.7 56 5.4 NNE 26 48 14 26 1012.1 1012.0 0.0
23/06:21pm 23.1 19.7 13.6 55 5.5 NE 24 44 13 24 1012.0 1011.9 0.0
23/06:17pm 24.0 22.3 12.6 49 6.6 E 13 26 7 14 1011.9 1011.8 0.0
23/06:00pm 25.0 22.0 11.9 44 7.5 SSW 19 26 10 14 1009.8 1009.8 0.0
23/05:30pm 26.7 22.1 12.4 41 8.3 SW 28 35 15 19 1009.2 1009.2 0.0
23/05:00pm 27.1 23.0 11.6 38 8.9 SSW 24 33 13 18 1009.1 1009.1 0.0
23/04:30pm 28.6 25.0 12.9 38 9.3 SSW 24 33 13 18 1009.4 1009.4 0.0
23/04:00pm 26.9 22.4 10.2 35 9.4 SSW 24 33 13 18 1009.1 1009.1 0.0
23/03:30pm 28.6 23.8 10.3 32 10.4 SSW 26 37 14 20 1009.2 1009.2 0.0
23/03:00pm 28.9 25.7 11.9 35 9.9 SSW 20 28 11 15 1009.3 1009.3 0.0
23/02:30pm 28.9 25.4 11.0 33 10.3 S 20 30 11 16 1009.4 1009.4 0.0
23/02:00pm 29.9 26.4 10.9 31 10.9 SSW 20 30 11 16 1009.4 1009.4 0.0
23/01:30pm 30.3 26.9 11.3 31 11.0 SSW 20 30 11 16 1009.6 1009.6 0.0
23/01:00pm 30.4 27.1 10.9 30 11.2 SSW 19 33 10 18 1009.7 1009.7 0.0
23/12:30pm 29.2 26.2 10.8 32 10.5 SW 17 26 9 14 1009.9 1009.9 0.0
23/12:00pm 29.7 26.4 10.8 31 10.8 SW 19 28 10 15 1010.0 1010.0 0.0
23/11:30am 28.6 25.3 10.8 33 10.2 W 19 28 10 15 1010.1 1010.1 0.0
23/11:00am 28.2 25.6 12.1 37 9.4 SW 17 26 9 14 1010.4 1010.4 0.0
23/10:30am 27.6 25.1 11.2 36 9.4 WSW 15 22 8 12 1010.3 1010.3 0.0
23/10:00am 27.1 25.6 12.0 39 8.7 W 11 15 6 8 1010.3 1010.3 0.0
23/09:40am 26.5 25.6 12.5 41 8.1 W 9 15 5 8 1010.2 1010.2 0.0
23/09:30am 25.6 24.9 13.1 46 7.3 NW 9 11 5 6 1010.3 1010.3 0.0
23/09:22am 25.4 25.2 13.6 48 6.9 WNW 7 11 4 6 1010.3 1010.3 0.0
23/09:00am 24.6 24.2 12.9 48 6.8 NW 7 11 4 6 1010.3 1010.3 0.0
23/08:30am 23.1 21.9 12.7 52 6.0 NE 11 13 6 7 1010.2 1010.2 0.0
23/08:00am 21.5 21.1 12.9 58 4.9 NNE 7 11 4 6 1009.9 1009.9 0.0
23/07:30am 19.7 18.6 12.0 61 4.3 NNE 9 13 5 7 1009.6 1009.6 0.0
23/07:00am 17.4 16.2 11.7 69 3.1 NNE 9 13 5 7 1009.4 1009.4 0.0
23/06:30am 15.5 13.9 10.1 70 2.8 NNE 9 11 5 6 1009.4 1009.4 0.0
23/06:00am 17.2 14.6 9.4 60 4.1 NNW 13 19 7 10 1009.3 1009.3 0.0
23/05:30am 18.2 15.2 7.6 50 5.4 NNW 13 20 7 11 1008.9 1008.9 0.0
23/05:00am 19.0 15.9 7.1 46 6.0 NNE 13 17 7 9 1008.5 1008.5 0.0
23/04:30am 19.6 17.5 8.3 48 5.9 NNE 9 11 5 6 1008.1 1008.1 0.0
23/04:00am 18.9 16.1 8.6 51 5.4 NE 13 15 7 8 1008.5 1008.5 0.0
23/03:30am 19.5 16.8 8.8 50 5.6 NE 13 15 7 8 1008.5 1008.5 0.0
23/03:00am 19.4 16.5 9.6 53 5.2 NE 15 17 8 9 1008.5 1008.5 0.0
23/02:30am 18.9 16.8 9.7 55 4.9 NE 11 13 6 7 1008.2 1008.2 0.0
23/02:00am 18.9 16.8 9.9 56 4.8 NE 11 15 6 8 1008.4 1008.4 0.0
23/01:30am 18.6 16.3 10.4 59 4.4 ENE 13 15 7 8 1008.6 1008.6 0.0
23/01:00am 19.5 18.0 10.5 56 4.9 ENE 9 15 5 8 1008.8 1008.8 0.0
23/12:30am 20.3 17.3 10.7 54 5.3 E 17 22 9 12 1009.1 1009.1 0.0
23/12:00am 21.2 18.4 11.2 53 5.5 E 17 22 9 12 1009.2 1009.2 0.0
 
Date/Time
CDT
Temp
°C
App
Temp
°C
Dew
Point
°C
Rel
Hum
%
Delta-T
°C
Wind Press
QNH
hPa
Press
MSL
hPa
Rain since
9am
mm
Dir  Spd
km/h
Gust
km/h
Spd
kts
Gust
kts
22/11:30pm 21.4 18.4 12.0 55 5.3 E 19 24 10 13 1009.2 1009.2 0.0
22/11:00pm 21.7 18.7 12.0 54 5.5 E 19 26 10 14 1009.3 1009.3 0.0
22/10:30pm 22.3 19.2 11.7 51 6.0 E 19 24 10 13 1009.4 1009.4 0.0
22/10:00pm 23.2 20.7 10.9 46 6.8 E 15 19 8 10 1009.4 1009.4 0.0
22/09:30pm 24.2 21.3 9.8 40 7.9 E 15 19 8 10 1009.5 1009.5 0.0
22/09:00pm 24.3 21.6 10.2 41 7.8 E 15 19 8 10 1009.4 1009.4 0.0
22/08:30pm 24.6 23.4 12.9 48 6.8 E 11 19 6 10 1009.3 1009.3 0.0
22/08:00pm 26.1 26.0 13.2 44 7.6 S 6 7 3 4 1009.3 1009.3 0.0
22/07:30pm 27.5 27.1 12.3 39 8.9 ESE 6 11 3 6 1009.2 1009.2 0.0
22/07:00pm 28.8 26.6 9.5 30 10.8 E 11 13 6 7 1009.1 1009.1 0.0
22/06:30pm 32.1 30.0 9.6 25 12.8 E 11 17 6 9 1008.9 1008.9 0.0
22/06:00pm 31.5 29.0 6.5 21 13.5 ENE 9 13 5 7 1009.1 1009.1 0.0
22/05:30pm 31.1 28.0 5.5 20 13.6 ENE 11 13 6 7 1009.3 1009.3 0.0
22/05:00pm 33.8 29.0 2.6 14 16.0 NE 17 20 9 11 1009.4 1009.4 0.0
22/04:30pm 33.9 30.1 3.7 15 15.8 NE 13 19 7 10 1009.6 1009.6 0.0
22/04:00pm 33.9 29.5 2.7 14 16.0 NNE 15 28 8 15 1009.9 1009.9 0.0
22/03:30pm 34.1 28.4 2.8 14 16.1 NNE 22 32 12 17 1010.2 1010.2 0.0
22/03:00pm 34.4 29.5 4.0 15 16.0 N 19 43 10 23 1010.6 1010.6 0.0
22/02:30pm 33.8 29.4 2.6 14 16.0 NNE 15 26 8 14 1011.0 1010.9 0.0
22/02:00pm 33.6 27.8 2.4 14 15.9 NE 22 32 12 17 1011.5 1011.4 0.0
22/01:30pm 33.5 27.7 4.2 16 15.4 NE 24 30 13 16 1011.7 1011.6 0.0
22/01:00pm 33.5 27.2 5.9 18 14.9 NE 28 37 15 20 1012.2 1012.1 0.0
22/12:30pm 32.8 26.3 4.6 17 14.9 NE 28 33 15 18 1012.6 1012.5 0.0
22/12:00pm 32.1 25.8 5.6 19 14.1 NNE 28 35 15 19 1013.0 1012.9 0.0
22/11:30am 32.3 26.9 7.9 22 13.5 NNE 26 35 14 19 1013.4 1013.3 0.0
22/11:00am 31.2 25.8 6.3 21 13.4 N 24 35 13 19 1013.7 1013.6 0.0
22/10:30am 30.5 25.0 5.7 21 13.1 NNE 24 35 13 19 1013.8 1013.7 0.0
22/10:00am 29.4 24.8 6.7 24 12.1 NNE 20 28 11 15 1014.0 1013.9 0.0
22/09:30am 28.1 24.8 9.4 31 10.4 NNE 17 24 9 13 1014.2 1014.1 0.0
22/09:00am 26.5 22.9 9.8 35 9.3 NNE 19 26 10 14 1014.3 1014.2 0.0
22/08:30am 24.6 21.4 10.1 40 8.0 NNE 17 20 9 11 1014.3 1014.2 0.0
22/08:00am 22.7 20.0 8.8 41 7.4 NNE 13 17 7 9 1014.1 1014.0 0.0
22/07:30am 20.9 18.6 8.9 46 6.4 NNE 11 11 6 6 1014.1 1014.0 0.0
22/07:00am 19.6 17.1 8.3 48 5.9 NE 11 13 6 7 1013.9 1013.8 0.0
22/06:30am 18.8 15.6 6.9 46 6.0 NE 13 15 7 8 1013.6 1013.5 0.0
22/06:00am 18.3 15.7 6.2 45 6.0 NE 9 11 5 6 1013.4 1013.3 0.0
22/05:30am 17.8 14.9 6.3 47 5.7 NE 11 13 6 7 1013.3 1013.2 0.0
22/05:00am 18.7 15.4 6.5 45 6.1 NE 13 15 7 8 1013.2 1013.1 0.0
22/04:30am 19.6 16.7 6.4 42 6.6 NE 11 13 6 7 1013.1 1013.0 0.0
22/04:00am 19.2 16.3 6.7 44 6.3 NE 11 13 6 7 1012.9 1012.8 0.0
22/03:30am 19.6 16.5 7.4 45 6.2 NE 13 13 7 7 1012.9 1012.8 0.0
22/03:00am 20.4 17.1 8.1 45 6.4 NE 15 17 8 9 1013.1 1013.0 0.0
22/02:30am 19.2 17.0 9.4 53 5.2 NE 11 13 6 7 1013.1 1013.0 0.0
22/02:00am 18.5 16.7 10.8 61 4.2 NE 11 13 6 7 1013.3 1013.2 0.0
22/01:30am 18.4 16.8 11.7 65 3.7 NE 11 13 6 7 1013.3 1013.2 0.0
22/01:00am 19.1 17.6 11.9 63 4.0 NE 11 13 6 7 1013.5 1013.4 0.0
22/12:30am 19.4 17.8 11.7 61 4.3 NE 11 13 6 7 1013.8 1013.7 0.0
22/12:00am 19.5 18.3 11.5 60 4.4 NE 9 11 5 6 1014.0 1013.9 0.0
 
Date/Time
CDT
Temp
°C
App
Temp
°C
Dew
Point
°C
Rel
Hum
%
Delta-T
°C
Wind Press
QNH
hPa
Press
MSL
hPa
Rain since
9am
mm
Dir  Spd
km/h
Gust
km/h
Spd
kts
Gust
kts
21/11:30pm 20.2 19.0 11.7 58 4.7 NE 9 11 5 6 1014.3 1014.2 0.0
21/11:00pm 20.9 19.3 11.5 55 5.2 ENE 11 13 6 7 1014.4 1014.3 0.0
21/10:30pm 21.1 19.9 11.7 55 5.2 ENE 9 11 5 6 1014.6 1014.5 0.0
21/10:00pm 21.4 21.0 12.5 57 5.0 NE 6 7 3 4 1014.7 1014.6 0.0
21/09:47pm 20.9 19.9 12.3 58 4.8 E 9 11 5 6 1014.7 1014.6 0.0
21/09:30pm 22.1 21.6 12.6 55 5.4 ESE 7 13 4 7 1014.7 1014.6 0.0
21/09:23pm 22.9 22.4 12.5 52 5.9 E 7 9 4 5 1014.6 1014.5 0.0
21/09:00pm 23.6 23.4 12.9 51 6.2 E 6 9 3 5 1014.5 1014.4 0.0
21/08:30pm 24.4 23.4 12.4 47 6.9 ESE 9 9 5 5 1014.2 1014.1 0.0
21/08:00pm 26.0 25.2 12.8 44 7.7 ESE 9 11 5 6 1014.2 1014.1 0.0
21/07:30pm 27.9 26.5 12.3 38 9.1 ESE 11 13 6 7 1014.0 1013.9 0.0
21/07:00pm 29.1 27.8 12.5 36 9.8 ESE 11 13 6 7 1013.9 1013.8 0.0
21/06:30pm 30.4 27.9 10.9 30 11.2 E 15 19 8 10 1013.8 1013.7 0.0
21/06:00pm 30.9 28.8 11.3 30 11.4 E 13 17 7 9 1013.9 1013.8 0.0
21/05:30pm 30.9 27.6 9.7 27 12.0 E 17 24 9 13 1014.0 1013.9 0.0
21/05:00pm 32.2 28.6 8.4 23 13.3 E 17 26 9 14 1014.2 1014.1 0.0
21/04:30pm 32.4 30.0 9.9 25 12.9 E 13 19 7 10 1014.5 1014.4 0.0
21/04:00pm 32.6 29.6 9.4 24 13.2 ENE 15 30 8 16 1014.7 1014.6 0.0
21/03:30pm 32.4 28.6 9.2 24 13.1 NE 19 26 10 14 1014.9 1014.8 0.0
21/03:00pm 32.5 28.8 9.3 24 13.1 NE 19 26 10 14 1015.1 1015.0 0.0
21/02:30pm 33.1 29.5 9.8 24 13.3 NE 19 24 10 13 1015.5 1015.4 0.0
21/02:00pm 32.8 29.5 10.8 26 12.8 NE 19 28 10 15 1015.8 1015.7 0.0
21/01:30pm 32.1 27.6 8.4 23 13.2 NE 22 28 12 15 1016.2 1016.1 0.0
21/01:00pm 32.2 27.8 9.1 24 13.0 NNE 22 33 12 18 1016.5 1016.4 0.0
21/12:30pm 31.6 27.0 9.8 26 12.4 NNE 24 33 13 18 1016.8 1016.8 0.0
21/12:00pm 31.0 26.4 9.8 27 12.0 NNE 24 35 13 19 1017.2 1017.2 0.0
21/11:30am 30.7 26.4 7.8 24 12.5 N 20 28 11 15 1017.4 1017.4 0.0
21/11:00am 30.4 25.7 9.3 27 11.8 NE 24 33 13 18 1017.7 1017.7 0.0
21/10:30am 28.9 25.3 10.6 32 10.4 NE 20 28 11 15 1017.8 1017.8 0.0
21/10:00am 28.2 24.0 9.9 32 10.3 NE 22 30 12 16 1017.8 1017.8 0.0
21/09:30am 26.2 23.0 11.2 39 8.5 NE 19 26 10 14 1018.1 1018.1 0.0
21/09:00am 25.1 21.7 11.3 42 7.8 NE 20 26 11 14 1018.3 1018.3 0.0

Other Formats:

Comma delimited format used in spreadsheet applications
http://www.bom.gov.au/fwo/IDS60801/IDS60801.94821.axf

JavaScript Object Notation format (JSON) in row-major order
http://www.bom.gov.au/fwo/IDS60801/IDS60801.94821.json